TimeEDT,TemperatureF,Dew PointF,Humidity,Sea Level PressureIn,VisibilityMPH,Wind Direction,Wind SpeedMPH,Gust SpeedMPH,PrecipitationIn,Events,Conditions,WindDirDegrees,DateUTC
12:15 AM,57.2,51.8,82,29.85,10.0,Calm,Calm,-,N/A,,Clear,0,2013-05-17 04:15:00
12:35 AM,66.2,39.2,37,29.86,10.0,NNW,4.6,-,N/A,,Clear,340,2013-05-17 04:35:00
12:55 AM,68.0,37.4,33,29.87,10.0,NNW,5.8,-,N/A,,Clear,330,2013-05-17 04:55:00
1:15 AM,68.0,37.4,33,29.87,10.0,NW,4.6,-,N/A,,Clear,310,2013-05-17 05:15:00
1:35 AM,68.0,35.6,30,29.88,10.0,NNW,6.9,-,N/A,,Clear,340,2013-05-17 05:35:00
1:55 AM,68.0,33.8,28,29.90,10.0,NNW,8.1,20.7,N/A,,Clear,340,2013-05-17 05:55:00
2:15 AM,66.2,33.8,30,29.90,10.0,Calm,Calm,-,N/A,,Clear,0,2013-05-17 06:15:00
2:35 AM,64.4,32.0,30,29.91,10.0,NW,4.6,-,N/A,,Clear,320,2013-05-17 06:35:00
2:55 AM,64.4,32.0,30,29.92,10.0,Calm,Calm,-,N/A,,Clear,0,2013-05-17 06:55:00
3:15 AM,62.6,33.8,34,29.92,10.0,NW,4.6,-,N/A,,Clear,320,2013-05-17 07:15:00
3:35 AM,62.6,33.8,34,29.93,10.0,NW,6.9,-,N/A,,Clear,320,2013-05-17 07:35:00
3:55 AM,62.6,35.6,37,29.94,10.0,NW,8.1,-,N/A,,Clear,320,2013-05-17 07:55:00
4:15 AM,62.6,35.6,37,29.95,10.0,NW,4.6,-,N/A,,Clear,310,2013-05-17 08:15:00
4:35 AM,60.8,37.4,42,29.95,10.0,NW,4.6,-,N/A,,Clear,310,2013-05-17 08:35:00
4:55 AM,60.8,37.4,42,29.95,10.0,NW,5.8,-,N/A,,Clear,320,2013-05-17 08:55:00
5:15 AM,60.8,37.4,42,29.97,10.0,NW,5.8,-,N/A,,Clear,320,2013-05-17 09:15:00
5:35 AM,59.0,39.2,48,29.98,10.0,NNW,4.6,-,N/A,,Clear,330,2013-05-17 09:35:00
5:55 AM,59.0,39.2,48,30.00,10.0,NNW,5.8,-,N/A,,Clear,330,2013-05-17 09:55:00
6:15 AM,59.0,39.2,48,30.00,10.0,North,4.6,-,N/A,,Clear,350,2013-05-17 10:15:00
6:35 AM,59.0,41.0,51,30.02,10.0,NNW,5.8,-,N/A,,Clear,330,2013-05-17 10:35:00
6:45 AM,57.2,41.0,55,30.02,15.0,North,8.1,-,N/A,,Clear,350,2013-05-17 10:45:00
7:45 AM,59.0,41.0,51,30.06,15.0,North,8.1,-,N/A,,Scattered Clouds,10,2013-05-17 11:45:00
8:45 AM,59.0,41.0,51,30.08,15.0,North,9.2,17.3,N/A,,Mostly Cloudy,350,2013-05-17 12:45:00
9:45 AM,59.0,39.2,48,30.09,15.0,NNW,11.5,17.3,N/A,,Overcast,340,2013-05-17 13:45:00
10:45 AM,62.6,39.2,42,30.09,10.0,NNW,15.0,19.6,N/A,,Mostly Cloudy,340,2013-05-17 14:45:00
11:45 AM,64.4,39.2,40,30.11,10.0,NNW,8.1,-,N/A,,Mostly Cloudy,330,2013-05-17 15:45:00
12:45 PM,66.2,39.2,37,30.11,10.0,North,8.1,16.1,N/A,,Mostly Cloudy,360,2013-05-17 16:45:00
1:45 PM,66.2,41.0,40,30.10,10.0,NNW,10.4,17.3,N/A,,Mostly Cloudy,340,2013-05-17 17:45:00
2:45 PM,69.8,41.0,35,30.10,10.0,North,4.6,19.6,N/A,,Scattered Clouds,350,2013-05-17 18:45:00
3:45 PM,71.6,37.4,29,30.08,10.0,North,9.2,-,N/A,,Scattered Clouds,360,2013-05-17 19:45:00
4:45 PM,73.4,35.6,25,30.08,10.0,North,11.5,16.1,N/A,,Clear,350,2013-05-17 20:45:00
5:45 PM,71.6,37.4,29,30.09,10.0,NW,10.4,15.0,N/A,,Clear,310,2013-05-17 21:45:00
6:45 PM,71.6,35.6,27,30.10,10.0,NNW,5.8,-,N/A,,Partly Cloudy,330,2013-05-17 22:45:00
7:45 PM,69.8,37.4,31,30.12,10.0,NNW,4.6,-,N/A,,Scattered Clouds,330,2013-05-17 23:45:00
8:45 PM,59.0,46.4,63,30.15,10.0,NNE,5.8,-,N/A,,Clear,30,2013-05-18 00:45:00
9:45 PM,53.6,46.4,77,30.18,10.0,Calm,Calm,-,N/A,,Clear,0,2013-05-18 01:45:00
10:55 PM,55.4,46.4,72,30.20,10.0,Calm,Calm,-,N/A,,Clear,0,2013-05-18 02:55:00
11:15 PM,55.4,46.4,72,30.20,10.0,Calm,Calm,-,N/A,,Clear,0,2013-05-18 03:15:00
11:35 PM,53.6,46.4,77,30.20,10.0,Calm,Calm,-,N/A,,Clear,0,2013-05-18 03:35:00
11:55 PM,53.6,46.4,77,30.21,10.0,Calm,Calm,-,N/A,,Clear,0,2013-05-18 03:55:00